createdAt,value
2018-08-28T00:01:10.271Z,15.80
2018-08-28T00:03:38.596Z,15.80
2018-08-28T00:06:06.809Z,15.80
2018-08-28T00:08:35.045Z,15.90
2018-08-28T00:11:03.329Z,16.00
2018-08-28T00:13:31.588Z,16.00
2018-08-28T00:15:59.844Z,16.00
2018-08-28T00:18:28.095Z,16.10
2018-08-28T00:20:56.355Z,16.10
2018-08-28T00:23:24.583Z,16.10
2018-08-28T00:25:52.864Z,16.20
2018-08-28T00:28:21.076Z,16.20
2018-08-28T00:30:49.325Z,16.20
2018-08-28T00:33:17.615Z,16.30
2018-08-28T00:35:45.840Z,16.30
2018-08-28T00:38:14.070Z,16.40
2018-08-28T00:40:42.341Z,16.40
2018-08-28T00:43:10.539Z,16.30
2018-08-28T00:45:38.768Z,16.30
2018-08-28T00:48:06.749Z,16.30
2018-08-28T00:50:35.013Z,16.30
2018-08-28T00:53:03.279Z,16.30
2018-08-28T00:55:31.568Z,16.30
2018-08-28T00:57:59.797Z,16.30
2018-08-28T01:00:28.036Z,16.30
2018-08-28T01:02:56.301Z,16.30
2018-08-28T01:05:24.547Z,16.30
2018-08-28T01:07:53.304Z,16.30
2018-08-28T01:10:21.548Z,16.30
2018-08-28T01:12:49.807Z,16.30
2018-08-28T01:15:18.045Z,16.30
2018-08-28T01:17:46.280Z,16.30
2018-08-28T01:20:14.752Z,16.40
2018-08-28T01:22:43.023Z,16.40
2018-08-28T01:25:11.256Z,16.50
2018-08-28T01:27:39.505Z,16.50
2018-08-28T01:30:07.800Z,16.50
2018-08-28T01:32:36.111Z,16.50
2018-08-28T01:35:04.316Z,16.40
2018-08-28T01:37:32.668Z,16.40
2018-08-28T01:40:01.067Z,16.30
2018-08-28T01:42:29.314Z,16.30
2018-08-28T01:44:57.542Z,16.30
2018-08-28T01:47:25.891Z,16.30
2018-08-28T01:49:54.153Z,16.30
2018-08-28T01:52:22.377Z,16.30
2018-08-28T01:54:50.620Z,16.30
2018-08-28T01:57:18.909Z,16.30
2018-08-28T01:59:47.157Z,16.30
2018-08-28T02:02:15.436Z,16.40
2018-08-28T02:04:43.780Z,16.30
2018-08-28T02:07:12.031Z,16.30
2018-08-28T02:09:40.268Z,16.40
2018-08-28T02:12:08.536Z,16.40
2018-08-28T02:14:36.739Z,16.40
2018-08-28T02:17:05.663Z,16.40
2018-08-28T02:19:33.919Z,16.30
2018-08-28T02:22:02.152Z,16.40
2018-08-28T02:24:31.200Z,16.40
2018-08-28T02:26:59.464Z,16.40
2018-08-28T02:29:27.709Z,16.40
2018-08-28T02:31:55.971Z,16.40
2018-08-28T02:34:24.370Z,16.40
2018-08-28T02:36:52.588Z,16.40
2018-08-28T02:39:20.913Z,16.50
2018-08-28T02:41:49.134Z,16.50
2018-08-28T02:44:17.404Z,16.50
2018-08-28T02:46:45.766Z,16.60
2018-08-28T02:49:14.136Z,16.60
2018-08-28T02:51:42.599Z,16.70
2018-08-28T02:54:10.836Z,16.60
2018-08-28T02:56:39.114Z,16.60
2018-08-28T02:59:08.144Z,16.60
2018-08-28T03:01:36.341Z,16.60
2018-08-28T03:04:04.595Z,16.50
2018-08-28T03:06:32.832Z,16.50
2018-08-28T03:09:01.077Z,16.40
2018-08-28T03:11:29.530Z,16.30
2018-08-28T03:13:57.748Z,16.20
2018-08-28T03:16:25.983Z,16.10
2018-08-28T03:18:54.179Z,16.00
2018-08-28T03:21:22.409Z,16.00
2018-08-28T03:23:50.607Z,16.00
2018-08-28T03:26:18.851Z,16.00
2018-08-28T03:28:47.093Z,16.00
2018-08-28T03:31:15.345Z,16.10
2018-08-28T03:33:43.588Z,16.20
2018-08-28T03:36:11.796Z,16.20
2018-08-28T03:38:40.038Z,16.20
2018-08-28T03:41:08.332Z,16.30
2018-08-28T03:43:36.605Z,16.30
2018-08-28T03:46:04.952Z,16.30
2018-08-28T03:48:33.208Z,16.30
2018-08-28T03:51:01.453Z,16.20
2018-08-28T03:53:29.692Z,16.20
2018-08-28T03:55:57.912Z,16.10
2018-08-28T03:58:26.123Z,16.10
2018-08-28T04:00:54.353Z,16.10
2018-08-28T04:03:22.592Z,16.10
2018-08-28T04:05:50.816Z,16.10
2018-08-28T04:08:19.076Z,16.10
2018-08-28T04:10:47.320Z,16.10
2018-08-28T04:13:15.555Z,16.10
2018-08-28T04:15:43.784Z,16.10
2018-08-28T04:18:12.323Z,16.10
2018-08-28T04:20:40.569Z,16.10
2018-08-28T04:23:08.841Z,16.10
2018-08-28T04:25:37.144Z,16.10
2018-08-28T04:28:05.435Z,16.10
2018-08-28T04:30:34.006Z,16.10
2018-08-28T04:33:02.486Z,16.10
2018-08-28T04:35:30.738Z,16.10
2018-08-28T04:37:59.236Z,16.10
2018-08-28T04:40:28.514Z,16.10
2018-08-28T04:42:56.724Z,16.10
2018-08-28T04:45:24.946Z,16.20
2018-08-28T04:47:53.213Z,16.20
2018-08-28T04:50:21.448Z,16.20
2018-08-28T04:52:49.684Z,16.20
2018-08-28T04:55:17.924Z,16.20
2018-08-28T04:57:46.160Z,16.20
2018-08-28T05:00:14.411Z,16.20
2018-08-28T05:02:42.655Z,16.20
2018-08-28T05:05:10.894Z,16.30
2018-08-28T05:07:39.197Z,16.30
2018-08-28T05:10:07.462Z,16.30
2018-08-28T05:12:35.728Z,16.30
2018-08-28T05:15:04.012Z,16.40
2018-08-28T05:17:32.300Z,16.40
2018-08-28T05:20:00.620Z,16.40
2018-08-28T05:22:29.737Z,16.40
2018-08-28T05:24:57.981Z,16.50
2018-08-28T05:27:26.236Z,16.50
2018-08-28T05:29:54.499Z,16.50
2018-08-28T05:32:22.705Z,16.50
2018-08-28T05:34:50.907Z,16.60
2018-08-28T05:37:19.125Z,16.60
2018-08-28T05:39:48.147Z,16.60
2018-08-28T05:42:16.447Z,16.70
2018-08-28T05:44:44.652Z,16.70
2018-08-28T05:47:13.365Z,16.70
2018-08-28T05:49:41.732Z,16.80
2018-08-28T05:52:09.876Z,16.90
2018-08-28T05:54:38.101Z,17.00
2018-08-28T05:57:06.488Z,17.00
2018-08-28T05:59:34.763Z,17.10
2018-08-28T06:02:02.992Z,17.10
2018-08-28T06:04:31.827Z,17.10
2018-08-28T06:07:00.080Z,17.10
2018-08-28T06:09:28.336Z,17.10
2018-08-28T06:11:56.598Z,17.20
2018-08-28T06:14:24.831Z,17.20
2018-08-28T06:16:53.112Z,17.30
2018-08-28T06:19:21.332Z,17.80
2018-08-28T06:21:49.588Z,19.00
2018-08-28T06:24:17.816Z,20.20
2018-08-28T06:26:46.075Z,21.10
2018-08-28T06:29:14.348Z,21.90
2018-08-28T06:31:42.552Z,22.00
2018-08-28T06:34:10.825Z,21.60
2018-08-28T06:36:39.089Z,21.10
2018-08-28T06:39:08.540Z,20.70
2018-08-28T06:41:36.806Z,20.40
2018-08-28T06:44:05.115Z,20.10
2018-08-28T06:46:33.405Z,19.90
2018-08-28T06:49:01.652Z,19.60
2018-08-28T06:51:29.852Z,19.30
2018-08-28T06:53:58.081Z,19.10
2018-08-28T06:56:26.324Z,18.90
2018-08-28T06:58:54.640Z,18.80
2018-08-28T07:01:23.233Z,18.70
2018-08-28T07:03:51.678Z,18.50
2018-08-28T07:06:19.880Z,18.50
2018-08-28T07:08:48.125Z,18.60
2018-08-28T07:11:16.361Z,18.70
2018-08-28T07:13:44.608Z,18.70
2018-08-28T07:16:12.860Z,18.70
2018-08-28T07:18:41.185Z,18.70
2018-08-28T07:21:10.363Z,18.70
2018-08-28T07:23:38.592Z,18.90
2018-08-28T07:26:06.869Z,19.00
2018-08-28T07:28:35.133Z,19.10
2018-08-28T07:31:04.311Z,19.10
2018-08-28T07:33:32.567Z,19.20
2018-08-28T07:36:00.774Z,19.40
2018-08-28T07:38:29.011Z,19.60
2018-08-28T07:40:57.220Z,19.70
2018-08-28T07:43:25.452Z,19.90
2018-08-28T07:45:53.661Z,20.10
2018-08-28T07:48:21.940Z,20.30
2018-08-28T07:50:50.134Z,20.50
2018-08-28T07:53:18.359Z,20.70
2018-08-28T07:55:46.603Z,21.00
2018-08-28T07:58:14.859Z,21.20
2018-08-28T08:00:43.098Z,21.30
2018-08-28T08:03:11.317Z,21.40
2018-08-28T08:05:39.600Z,21.60
2018-08-28T08:08:07.930Z,21.90
2018-08-28T08:10:36.287Z,22.20
2018-08-28T08:13:05.080Z,22.40
2018-08-28T08:15:33.421Z,22.50
2018-08-28T08:18:01.634Z,22.60
2018-08-28T08:20:29.853Z,22.40
2018-08-28T08:22:58.095Z,22.20
2018-08-28T08:25:26.429Z,21.90
2018-08-28T08:27:54.814Z,21.80
2018-08-28T08:30:22.992Z,21.60
2018-08-28T08:32:51.725Z,21.40
2018-08-28T08:35:20.082Z,21.30
2018-08-28T08:37:48.282Z,21.20
2018-08-28T08:40:16.564Z,21.10
2018-08-28T08:42:44.768Z,21.20
2018-08-28T08:45:13.024Z,21.30
2018-08-28T08:47:41.256Z,21.60
2018-08-28T08:50:09.736Z,21.80
2018-08-28T08:52:38.121Z,21.90
2018-08-28T08:55:06.788Z,21.90
2018-08-28T08:57:35.054Z,22.20
2018-08-28T09:00:03.285Z,22.30
2018-08-28T09:02:31.533Z,22.50
2018-08-28T09:04:59.760Z,22.70
2018-08-28T09:07:27.976Z,22.70
2018-08-28T09:09:56.246Z,22.90
2018-08-28T09:12:24.491Z,23.20
2018-08-28T09:14:52.724Z,23.50
2018-08-28T09:17:20.968Z,23.70
2018-08-28T09:19:49.263Z,24.00
2018-08-28T09:22:17.555Z,24.30
2018-08-28T09:24:45.805Z,24.60
2018-08-28T09:27:14.067Z,24.80
2018-08-28T09:29:42.313Z,25.00
2018-08-28T09:32:10.631Z,25.00
2018-08-28T09:34:38.912Z,25.00
2018-08-28T09:37:07.297Z,25.00
2018-08-28T09:39:35.520Z,24.70
2018-08-28T09:42:03.727Z,24.60
2018-08-28T09:44:31.960Z,24.50
2018-08-28T09:47:00.244Z,24.20
2018-08-28T09:49:28.672Z,23.90
2018-08-28T09:51:56.915Z,23.60
2018-08-28T09:54:25.157Z,23.60
2018-08-28T09:56:53.420Z,23.40
2018-08-28T09:59:21.645Z,23.30
2018-08-28T10:01:50.022Z,23.30
2018-08-28T10:04:18.317Z,23.20
2018-08-28T10:06:46.629Z,23.20
2018-08-28T10:09:16.046Z,23.20
2018-08-28T10:11:44.460Z,23.10
2018-08-28T10:14:12.997Z,22.90
2018-08-28T10:16:41.265Z,22.70
2018-08-28T10:19:09.965Z,22.40
2018-08-28T10:21:38.601Z,22.30
2018-08-28T10:24:07.128Z,22.30
2018-08-28T10:26:35.626Z,22.30
2018-08-28T10:29:03.871Z,22.30
2018-08-28T10:31:32.139Z,22.30
2018-08-28T10:34:00.385Z,22.20
2018-08-28T10:36:28.636Z,22.10
2018-08-28T10:38:56.843Z,22.00
2018-08-28T10:41:25.085Z,22.10
2018-08-28T10:43:53.338Z,22.10
2018-08-28T10:46:21.622Z,22.20
2018-08-28T10:48:49.852Z,22.20
2018-08-28T10:51:18.306Z,22.30
2018-08-28T10:53:46.733Z,22.30
2018-08-28T10:56:14.980Z,22.30
2018-08-28T10:58:43.382Z,22.30
2018-08-28T11:01:11.608Z,22.20
2018-08-28T11:03:39.881Z,22.20
2018-08-28T11:06:08.221Z,22.10
2018-08-28T11:08:36.534Z,22.00
2018-08-28T11:11:04.848Z,22.00
2018-08-28T11:13:33.077Z,22.10
2018-08-28T11:16:02.228Z,22.20
2018-08-28T11:18:31.554Z,22.20
2018-08-28T11:20:59.941Z,22.30
2018-08-28T11:23:28.217Z,22.50
2018-08-28T11:25:56.426Z,22.60
2018-08-28T11:28:24.698Z,22.70
2018-08-28T11:30:52.950Z,22.70
2018-08-28T11:33:21.209Z,22.80
2018-08-28T11:35:49.895Z,22.70
2018-08-28T11:38:18.126Z,22.70
2018-08-28T11:40:46.352Z,22.70
2018-08-28T11:43:14.564Z,22.70
2018-08-28T11:45:42.804Z,22.60
2018-08-28T11:48:11.149Z,22.90
2018-08-28T11:50:40.068Z,23.10
2018-08-28T11:53:08.435Z,23.20
2018-08-28T11:55:36.661Z,23.50
2018-08-28T11:58:05.344Z,23.60
2018-08-28T12:00:33.593Z,23.50
2018-08-28T12:03:01.817Z,23.30
2018-08-28T12:05:30.841Z,23.00
2018-08-28T12:07:59.070Z,22.70
2018-08-28T12:10:27.289Z,22.50
2018-08-28T12:12:55.855Z,22.40
2018-08-28T12:15:24.061Z,22.30
2018-08-28T12:17:52.329Z,22.20
2018-08-28T12:20:20.612Z,22.30
2018-08-28T12:22:48.833Z,22.10
2018-08-28T12:25:17.064Z,22.00
2018-08-28T12:27:45.355Z,21.90
2018-08-28T12:30:13.608Z,21.80
2018-08-28T12:32:41.840Z,21.70
2018-08-28T12:35:10.120Z,21.70
2018-08-28T12:37:38.389Z,21.70
2018-08-28T12:40:06.952Z,21.70
2018-08-28T12:42:35.198Z,21.70
2018-08-28T12:45:03.461Z,21.70
2018-08-28T12:47:31.715Z,21.80
2018-08-28T12:49:59.935Z,21.90
2018-08-28T12:52:28.146Z,22.00
2018-08-28T12:54:56.601Z,22.30
2018-08-28T12:57:25.024Z,22.30
2018-08-28T12:59:53.295Z,22.60
2018-08-28T13:02:21.594Z,22.70
2018-08-28T13:04:49.850Z,22.90
2018-08-28T13:07:18.169Z,22.90
2018-08-28T13:09:46.328Z,23.00
2018-08-28T13:12:14.536Z,23.10
2018-08-28T13:14:42.893Z,23.10
2018-08-28T13:17:11.932Z,23.10
2018-08-28T13:19:40.187Z,23.10
2018-08-28T13:22:08.629Z,23.10
2018-08-28T13:24:37.157Z,23.10
2018-08-28T13:27:05.397Z,23.30
2018-08-28T13:29:33.845Z,23.40
2018-08-28T13:32:02.124Z,23.50
2018-08-28T13:34:30.499Z,23.70
2018-08-28T13:36:58.852Z,23.70
2018-08-28T13:39:27.097Z,23.50
2018-08-28T13:41:55.456Z,23.60
2018-08-28T13:44:23.700Z,23.60
2018-08-28T13:46:52.065Z,23.70
2018-08-28T13:49:20.238Z,23.70
2018-08-28T13:51:48.496Z,23.80
2018-08-28T13:54:16.797Z,24.00
2018-08-28T13:56:44.993Z,23.80
2018-08-28T13:59:13.275Z,23.90
2018-08-28T14:01:41.545Z,24.00
2018-08-28T14:04:09.817Z,24.10
2018-08-28T14:06:38.243Z,24.00
2018-08-28T14:09:06.505Z,24.10
2018-08-28T14:11:34.736Z,24.10
2018-08-28T14:14:03.064Z,24.20
2018-08-28T14:16:31.263Z,24.30
2018-08-28T14:18:59.512Z,24.20
2018-08-28T14:21:27.772Z,24.40
2018-08-28T14:23:56.024Z,24.40
2018-08-28T14:26:24.277Z,24.40
2018-08-28T14:28:52.657Z,24.40
2018-08-28T14:31:20.836Z,24.40
2018-08-28T14:33:49.053Z,24.50
2018-08-28T14:36:17.317Z,24.20
2018-08-28T14:38:45.597Z,24.20
2018-08-28T14:41:13.839Z,24.10
2018-08-28T14:43:42.194Z,23.90
2018-08-28T14:46:10.495Z,23.70
2018-08-28T14:48:38.830Z,23.60
2018-08-28T14:51:07.542Z,23.10
2018-08-28T14:53:35.844Z,22.90
2018-08-28T14:56:04.127Z,22.70
2018-08-28T14:58:32.390Z,22.60
2018-08-28T15:01:00.644Z,22.40
2018-08-28T15:03:28.885Z,22.40
2018-08-28T15:05:57.160Z,22.30
2018-08-28T15:08:25.442Z,22.40
2018-08-28T15:10:53.684Z,22.30
2018-08-28T15:13:21.937Z,22.40
2018-08-28T15:15:50.244Z,22.30
2018-08-28T15:18:18.497Z,22.30
2018-08-28T15:20:46.758Z,22.30
2018-08-28T15:23:14.976Z,22.30
2018-08-28T15:25:43.259Z,22.30
2018-08-28T15:28:11.568Z,22.20
2018-08-28T15:30:39.905Z,22.20
2018-08-28T15:33:08.203Z,22.10
2018-08-28T15:35:36.434Z,22.20
2018-08-28T15:38:04.711Z,22.10
2018-08-28T15:40:32.936Z,22.00
2018-08-28T15:43:01.222Z,22.00
2018-08-28T15:45:29.429Z,22.00
2018-08-28T15:47:57.704Z,22.00
2018-08-28T15:50:25.979Z,21.90
2018-08-28T15:52:54.261Z,21.90
2018-08-28T15:55:22.513Z,21.90
2018-08-28T15:57:50.735Z,21.90
2018-08-28T16:00:18.976Z,21.90
2018-08-28T16:02:47.228Z,21.90
2018-08-28T16:05:15.447Z,21.90
2018-08-28T16:07:43.712Z,22.00
2018-08-28T16:10:12.016Z,21.80
2018-08-28T16:12:40.364Z,21.80
2018-08-28T16:15:08.706Z,21.80
2018-08-28T16:17:37.019Z,21.70
2018-08-28T16:20:06.428Z,21.70
2018-08-28T16:22:41.896Z,21.70
2018-08-28T16:25:10.340Z,21.70
2018-08-28T16:27:38.756Z,21.60
2018-08-28T16:30:07.066Z,21.60
2018-08-28T16:32:35.341Z,21.50
2018-08-28T16:35:03.608Z,21.50
2018-08-28T16:37:31.859Z,21.50
2018-08-28T16:40:00.182Z,21.50
2018-08-28T16:42:29.359Z,21.40
2018-08-28T16:44:57.649Z,21.50
2018-08-28T16:47:25.919Z,21.40
2018-08-28T16:49:54.237Z,21.40
2018-08-28T16:52:22.518Z,21.40
2018-08-28T16:54:50.778Z,21.40
2018-08-28T16:57:19.064Z,21.30
2018-08-28T16:59:47.536Z,21.30
2018-08-28T17:02:15.850Z,21.20
2018-08-28T17:04:44.150Z,21.10
2018-08-28T17:07:12.985Z,21.00
2018-08-28T17:09:41.862Z,21.00
2018-08-28T17:12:10.193Z,20.90
2018-08-28T17:14:38.478Z,20.80
2018-08-28T17:17:06.768Z,20.70
2018-08-28T17:19:35.156Z,20.70
2018-08-28T17:22:03.630Z,20.80
2018-08-28T17:24:31.940Z,20.70
2018-08-28T17:27:00.983Z,20.60
2018-08-28T17:29:29.545Z,20.60
2018-08-28T17:31:57.891Z,20.60
2018-08-28T17:34:26.209Z,20.60
2018-08-28T17:36:55.076Z,20.50
2018-08-28T17:39:23.439Z,20.50
2018-08-28T17:41:52.669Z,20.50
2018-08-28T17:44:21.176Z,20.40
2018-08-28T17:46:49.726Z,20.40
2018-08-28T17:49:18.258Z,20.40
2018-08-28T17:51:47.160Z,20.40
2018-08-28T17:54:15.666Z,20.40
2018-08-28T17:56:44.108Z,20.40
2018-08-28T17:59:12.471Z,20.40
2018-08-28T18:01:41.360Z,20.30
2018-08-28T18:04:09.721Z,20.30
2018-08-28T18:06:38.384Z,20.30
2018-08-28T18:09:06.700Z,20.20
2018-08-28T18:11:35.057Z,20.10
2018-08-28T18:14:04.076Z,20.00
2018-08-28T18:16:32.522Z,20.00
2018-08-28T18:19:01.733Z,20.00
2018-08-28T18:21:30.241Z,20.00
2018-08-28T18:23:59.488Z,20.00
2018-08-28T18:26:28.697Z,20.00
2018-08-28T18:28:57.757Z,19.90
2018-08-28T18:31:26.049Z,19.80
2018-08-28T18:33:54.382Z,19.80
2018-08-28T18:36:22.675Z,19.80
2018-08-28T18:38:51.031Z,19.80
2018-08-28T18:41:19.437Z,19.80
2018-08-28T18:43:48.019Z,19.80
2018-08-28T18:46:18.246Z,19.80
2018-08-28T18:48:46.570Z,19.90
2018-08-28T18:51:14.879Z,19.90
2018-08-28T18:53:43.235Z,19.90
2018-08-28T18:56:11.920Z,19.80
2018-08-28T18:58:40.599Z,19.80
2018-08-28T19:01:11.530Z,19.70
2018-08-28T19:03:39.947Z,19.70
2018-08-28T19:06:08.285Z,19.70
2018-08-28T19:08:36.739Z,19.80
2018-08-28T19:11:06.548Z,19.70
2018-08-28T19:13:34.868Z,19.70
2018-08-28T19:16:03.822Z,19.70
2018-08-28T19:18:32.118Z,19.70
2018-08-28T19:21:00.720Z,19.60
2018-08-28T19:23:28.996Z,19.50
2018-08-28T19:25:57.381Z,19.50
2018-08-28T19:28:26.103Z,19.50
2018-08-28T19:30:55.327Z,19.50
2018-08-28T19:33:23.662Z,19.50
2018-08-28T19:35:52.001Z,19.50
2018-08-28T19:38:20.471Z,19.50
2018-08-28T19:40:50.613Z,19.40
2018-08-28T19:43:19.386Z,19.50
2018-08-28T19:45:48.717Z,19.40
2018-08-28T19:48:17.636Z,19.40
2018-08-28T19:50:45.981Z,19.40
2018-08-28T19:53:15.844Z,19.40
2018-08-28T19:55:44.759Z,19.40
2018-08-28T19:58:13.186Z,19.30
2018-08-28T20:00:42.287Z,19.30
2018-08-28T20:03:10.872Z,19.30
2018-08-28T20:05:39.258Z,19.30
2018-08-28T20:08:07.743Z,19.20
2018-08-28T20:10:36.566Z,19.20
2018-08-28T20:13:04.970Z,19.10
2018-08-28T20:15:33.403Z,19.10
2018-08-28T20:18:01.718Z,19.10
2018-08-28T20:20:30.434Z,19.00
2018-08-28T20:22:58.862Z,19.00
2018-08-28T20:25:27.216Z,19.00
2018-08-28T20:27:55.528Z,19.10
2018-08-28T20:30:24.202Z,19.10
2018-08-28T20:32:52.507Z,19.00
2018-08-28T20:35:20.791Z,18.90
2018-08-28T20:37:49.140Z,18.90
2018-08-28T20:40:17.618Z,18.90
2018-08-28T20:42:45.944Z,18.90
2018-08-28T20:45:14.355Z,18.80
2018-08-28T20:47:42.668Z,18.80
2018-08-28T20:50:11.308Z,18.80
2018-08-28T20:52:39.725Z,18.80
2018-08-28T20:55:08.195Z,18.80
2018-08-28T20:57:36.507Z,18.80
2018-08-28T21:00:06.874Z,18.80
2018-08-28T21:02:35.164Z,18.90
2018-08-28T21:05:03.466Z,18.90
2018-08-28T21:07:31.963Z,18.90
2018-08-28T21:10:00.593Z,18.90
2018-08-28T21:12:28.901Z,18.80
2018-08-28T21:14:57.198Z,18.80
2018-08-28T21:17:25.493Z,18.70
2018-08-28T21:19:53.781Z,18.70
2018-08-28T21:22:22.064Z,18.60
2018-08-28T21:24:50.304Z,18.60
2018-08-28T21:27:18.690Z,18.50
2018-08-28T21:29:46.989Z,18.50
2018-08-28T21:32:15.253Z,18.40
2018-08-28T21:34:43.581Z,18.40
2018-08-28T21:37:11.884Z,18.30
2018-08-28T21:39:40.218Z,18.20
2018-08-28T21:42:08.525Z,18.20
2018-08-28T21:44:36.860Z,18.10
2018-08-28T21:47:05.158Z,18.00
2018-08-28T21:49:33.413Z,18.00
2018-08-28T21:52:01.728Z,18.00
2018-08-28T21:54:29.993Z,17.90
2018-08-28T21:56:58.250Z,17.90
2018-08-28T21:59:26.487Z,17.90
2018-08-28T22:01:54.719Z,17.80
2018-08-28T22:04:22.960Z,17.70
2018-08-28T22:06:56.731Z,17.70
2018-08-28T22:09:24.903Z,17.60
2018-08-28T22:11:53.138Z,17.50
2018-08-28T22:14:21.669Z,17.40
2018-08-28T22:16:49.907Z,17.40
2018-08-28T22:19:18.123Z,17.30
2018-08-28T22:21:46.377Z,17.20
2018-08-28T22:24:14.619Z,17.20
2018-08-28T22:26:42.860Z,17.10
2018-08-28T22:29:11.131Z,17.00
2018-08-28T22:31:39.384Z,17.00
2018-08-28T22:34:07.630Z,16.90
2018-08-28T22:36:35.898Z,16.80
2018-08-28T22:39:04.949Z,16.80
2018-08-28T22:41:33.171Z,16.70
2018-08-28T22:44:01.564Z,16.70
2018-08-28T22:46:29.807Z,16.60
2018-08-28T22:48:58.033Z,16.60
2018-08-28T22:51:26.247Z,16.50
2018-08-28T22:53:54.489Z,16.50
2018-08-28T22:56:22.716Z,16.40
2018-08-28T22:58:50.983Z,16.40
2018-08-28T23:01:19.241Z,16.30
2018-08-28T23:03:47.447Z,16.30
2018-08-28T23:06:15.867Z,16.30
2018-08-28T23:08:44.105Z,16.20
2018-08-28T23:11:12.371Z,16.20
2018-08-28T23:13:40.628Z,16.10
2018-08-28T23:16:08.900Z,16.10
2018-08-28T23:18:37.342Z,16.10
2018-08-28T23:21:05.919Z,16.10
2018-08-28T23:23:35.099Z,16.10
2018-08-28T23:26:03.340Z,16.00
2018-08-28T23:28:31.639Z,16.00
2018-08-28T23:30:59.888Z,16.00
2018-08-28T23:33:28.208Z,16.00
2018-08-28T23:35:56.498Z,16.00
2018-08-28T23:38:24.738Z,16.00
2018-08-28T23:40:53.000Z,16.00
2018-08-28T23:43:22.184Z,16.00
2018-08-28T23:45:50.432Z,16.00
2018-08-28T23:48:18.693Z,16.00
2018-08-28T23:50:46.959Z,15.90
2018-08-28T23:53:15.788Z,15.90
2018-08-28T23:55:44.033Z,15.90
2018-08-28T23:58:12.312Z,15.90
